OIBA METAR and TAF | Updated Today

OIBA METAR

Abu Musa Island Airport

Observation time: 60 min. ago

OIBA 050500Z 22004KT 4000 HZ NSC 34/27 Q1004

Need help? Read our tutorial on how to read METARs or read the parsed version below.

Abu Musa Island Airport (OIBA) METAR

  • Weather conditions on Mon, 05 Jun 2023 05:00:00 +0000 (60 min. ago):
  • Present conditions: Haze
  • Clouds: No significant clouds are observed
  • Visibility: 4000 meters
  • Wind: 220 degrees at 4 knots
  • Temperature: 34 celsius
  • Dew point: 27 celsius
  • Pressure: 1004 millibars
  • Remarks: None


Useful to know...